sensor_id;sensor_type;location;lat;lon;timestamp;pressure;altitude;pressure_sealevel;temperature;humidity
24280;BME280;12395;42.808;23.408;2023-04-20T00:02:17;94552.38;;;7.44;100.00
24280;BME280;12395;42.808;23.408;2023-04-20T00:04:42;94548.97;;;7.50;100.00
24280;BME280;12395;42.808;23.408;2023-04-20T00:07:07;94537.78;;;7.42;100.00
24280;BME280;12395;42.808;23.408;2023-04-20T00:09:33;94542.88;;;7.50;100.00
24280;BME280;12395;42.808;23.408;2023-04-20T00:11:58;94543.91;;;7.55;100.00
24280;BME280;12395;42.808;23.408;2023-04-20T00:14:24;94538.25;;;7.58;100.00
24280;BME280;12395;42.808;23.408;2023-04-20T00:16:50;94542.72;;;7.64;100.00
24280;BME280;12395;42.808;23.408;2023-04-20T00:19:15;94543.16;;;7.74;100.00
24280;BME280;12395;42.808;23.408;2023-04-20T00:21:41;94523.66;;;7.62;100.00
24280;BME280;12395;42.808;23.408;2023-04-20T00:24:06;94524.91;;;7.73;100.00
24280;BME280;12395;42.808;23.408;2023-04-20T00:26:32;94536.91;;;7.82;100.00
24280;BME280;12395;42.808;23.408;2023-04-20T00:28:58;94537.50;;;7.84;100.00
24280;BME280;12395;42.808;23.408;2023-04-20T00:31:23;94535.84;;;7.76;100.00
24280;BME280;12395;42.808;23.408;2023-04-20T00:33:49;94527.16;;;7.76;100.00
24280;BME280;12395;42.808;23.408;2023-04-20T00:36:15;94533.06;;;7.85;100.00
24280;BME280;12395;42.808;23.408;2023-04-20T00:38:40;94530.56;;;7.76;100.00
24280;BME280;12395;42.808;23.408;2023-04-20T00:41:06;94521.06;;;7.75;100.00
24280;BME280;12395;42.808;23.408;2023-04-20T00:43:31;94518.38;;;7.62;100.00
24280;BME280;12395;42.808;23.408;2023-04-20T00:45:57;94521.63;;;7.64;100.00
24280;BME280;12395;42.808;23.408;2023-04-20T00:48:22;94502.28;;;7.44;100.00
24280;BME280;12395;42.808;23.408;2023-04-20T00:50:49;94526.91;;;7.64;100.00
24280;BME280;12395;42.808;23.408;2023-04-20T00:53:15;94531.16;;;7.72;100.00
24280;BME280;12395;42.808;23.408;2023-04-20T00:55:42;94523.66;;;7.62;100.00
24280;BME280;12395;42.808;23.408;2023-04-20T00:58:08;94528.13;;;7.68;100.00
24280;BME280;12395;42.808;23.408;2023-04-20T01:00:34;94528.09;;;7.62;100.00
24280;BME280;12395;42.808;23.408;2023-04-20T01:02:59;94532.81;;;7.73;100.00
24280;BME280;12395;42.808;23.408;2023-04-20T01:05:25;94521.63;;;7.64;100.00
24280;BME280;12395;42.808;23.408;2023-04-20T01:07:51;94530.56;;;7.70;100.00
24280;BME280;12395;42.808;23.408;2023-04-20T01:10:16;94519.19;;;7.63;100.00
24280;BME280;12395;42.808;23.408;2023-04-20T01:12:42;94528.13;;;7.68;100.00
24280;BME280;12395;42.808;23.408;2023-04-20T01:15:08;94518.00;;;7.65;100.00
24280;BME280;12395;42.808;23.408;2023-04-20T01:17:34;94525.53;;;7.82;100.00
24280;BME280;12395;42.808;23.408;2023-04-20T01:20:03;94528.56;;;7.78;100.00
24280;BME280;12395;42.808;23.408;2023-04-20T01:22:28;94512.91;;;7.70;100.00
24280;BME280;12395;42.808;23.408;2023-04-20T01:24:54;94514.56;;;7.78;100.00
24280;BME280;12395;42.808;23.408;2023-04-20T01:27:19;94508.31;;;7.92;100.00
24280;BME280;12395;42.808;23.408;2023-04-20T01:29:45;94506.69;;;7.98;100.00
24280;BME280;12395;42.808;23.408;2023-04-20T01:32:11;94507.13;;;8.08;100.00
24280;BME280;12395;42.808;23.408;2023-04-20T01:34:37;94508.31;;;8.05;100.00
24280;BME280;12395;42.808;23.408;2023-04-20T01:37:03;94511.13;;;7.84;100.00
24280;BME280;12395;42.808;23.408;2023-04-20T01:39:34;94508.66;;;7.69;100.00
24280;BME280;12395;42.808;23.408;2023-04-20T01:42:00;94515.34;;;7.72;100.00
24280;BME280;12395;42.808;23.408;2023-04-20T01:44:26;94501.31;;;7.52;100.00
24280;BME280;12395;42.808;23.408;2023-04-20T01:46:51;94487.91;;;7.47;100.00
24280;BME280;12395;42.808;23.408;2023-04-20T01:49:17;94481.38;;;7.30;100.00
24280;BME280;12395;42.808;23.408;2023-04-20T01:51:42;94488.72;;;7.41;100.00
24280;BME280;12395;42.808;23.408;2023-04-20T01:54:07;94493.16;;;7.40;100.00
24280;BME280;12395;42.808;23.408;2023-04-20T01:56:33;94500.06;;;7.41;100.00
24280;BME280;12395;42.808;23.408;2023-04-20T01:58:58;94487.03;;;7.20;100.00
24280;BME280;12395;42.808;23.408;2023-04-20T02:01:23;94492.50;;;7.25;100.00
24280;BME280;12395;42.808;23.408;2023-04-20T02:03:49;94489.19;;;7.10;100.00
24280;BME280;12395;42.808;23.408;2023-04-20T02:06:14;94497.44;;;6.94;100.00
24280;BME280;12395;42.808;23.408;2023-04-20T02:08:40;94498.22;;;6.88;100.00
24280;BME280;12395;42.808;23.408;2023-04-20T02:11:05;94483.41;;;6.53;100.00
24280;BME280;12395;42.808;23.408;2023-04-20T02:13:30;94480.63;;;6.33;100.00
24280;BME280;12395;42.808;23.408;2023-04-20T02:15:56;94504.63;;;6.45;100.00
24280;BME280;12395;42.808;23.408;2023-04-20T02:18:21;94493.22;;;6.38;100.00
24280;BME280;12395;42.808;23.408;2023-04-20T02:20:47;94504.09;;;6.28;100.00
24280;BME280;12395;42.808;23.408;2023-04-20T02:23:12;94500.66;;;6.28;100.00
24280;BME280;12395;42.808;23.408;2023-04-20T02:25:38;94490.41;;;6.11;100.00
24280;BME280;12395;42.808;23.408;2023-04-20T02:28:03;94500.69;;;6.06;100.00
24280;BME280;12395;42.808;23.408;2023-04-20T02:30:29;94487.69;;;5.98;100.00
24280;BME280;12395;42.808;23.408;2023-04-20T02:32:55;94500.13;;;6.11;100.00
24280;BME280;12395;42.808;23.408;2023-04-20T02:35:20;94495.16;;;6.01;100.00
24280;BME280;12395;42.808;23.408;2023-04-20T02:37:46;94498.41;;;6.03;100.00
24280;BME280;12395;42.808;23.408;2023-04-20T02:40:11;94505.19;;;5.91;100.00
24280;BME280;12395;42.808;23.408;2023-04-20T02:42:37;94500.13;;;5.90;100.00
24280;BME280;12395;42.808;23.408;2023-04-20T02:45:03;94493.28;;;5.74;100.00
24280;BME280;12395;42.808;23.408;2023-04-20T02:47:29;94519.72;;;5.87;100.00
24280;BME280;12395;42.808;23.408;2023-04-20T02:49:54;94509.31;;;5.79;100.00
24280;BME280;12395;42.808;23.408;2023-04-20T02:52:20;94502.06;;;5.81;100.00
24280;BME280;12395;42.808;23.408;2023-04-20T02:54:46;94490.84;;;5.73;100.00
24280;BME280;12395;42.808;23.408;2023-04-20T02:57:11;94511.53;;;5.82;100.00
24280;BME280;12395;42.808;23.408;2023-04-20T02:59:37;94500.34;;;5.74;100.00
24280;BME280;12395;42.808;23.408;2023-04-20T03:02:03;94508.97;;;5.68;100.00
24280;BME280;12395;42.808;23.408;2023-04-20T03:04:28;94502.03;;;5.60;100.00
24280;BME280;12395;42.808;23.408;2023-04-20T03:06:55;94517.06;;;5.66;100.00
24280;BME280;12395;42.808;23.408;2023-04-20T03:09:21;94498.53;;;5.53;100.00
24280;BME280;12395;42.808;23.408;2023-04-20T03:11:47;94517.13;;;5.73;100.00
24280;BME280;12395;42.808;23.408;2023-04-20T03:14:13;94521.16;;;5.75;100.00
24280;BME280;12395;42.808;23.408;2023-04-20T03:16:38;94512.22;;;5.70;100.00
24280;BME280;12395;42.808;23.408;2023-04-20T03:19:04;94503.72;;;5.68;100.00
24280;BME280;12395;42.808;23.408;2023-04-20T03:21:29;94500.22;;;5.61;100.00
24280;BME280;12395;42.808;23.408;2023-04-20T03:23:55;94509.81;;;5.68;100.00
24280;BME280;12395;42.808;23.408;2023-04-20T03:26:20;94504.16;;;5.71;100.00
24280;BME280;12395;42.808;23.408;2023-04-20T03:28:48;94506.97;;;5.70;100.00
24280;BME280;12395;42.808;23.408;2023-04-20T03:31:14;94505.16;;;5.70;100.00
24280;BME280;12395;42.808;23.408;2023-04-20T03:33:39;94497.97;;;5.79;100.00
24280;BME280;12395;42.808;23.408;2023-04-20T03:36:05;94505.31;;;5.83;100.00
24280;BME280;12395;42.808;23.408;2023-04-20T03:38:31;94502.66;;;5.83;100.00
24280;BME280;12395;42.808;23.408;2023-04-20T03:40:56;94491.28;;;5.76;100.00
24280;BME280;12395;42.808;23.408;2023-04-20T03:43:21;94441.34;;;5.55;100.00
24280;BME280;12395;42.808;23.408;2023-04-20T03:45:47;94487.47;;;5.79;100.00
24280;BME280;12395;42.808;23.408;2023-04-20T03:48:13;94490.72;;;5.81;100.00
24280;BME280;12395;42.808;23.408;2023-04-20T03:50:39;94515.00;;;6.04;100.00
24280;BME280;12395;42.808;23.408;2023-04-20T03:53:04;94501.03;;;6.03;100.00
24280;BME280;12395;42.808;23.408;2023-04-20T03:55:29;94502.53;;;6.12;100.00
24280;BME280;12395;42.808;23.408;2023-04-20T03:57:55;94513.78;;;6.28;100.00
24280;BME280;12395;42.808;23.408;2023-04-20T04:00:20;94514.53;;;6.43;100.00
24280;BME280;12395;42.808;23.408;2023-04-20T04:02:46;94515.41;;;6.50;100.00
24280;BME280;12395;42.808;23.408;2023-04-20T04:05:11;94511.47;;;6.67;100.00
24280;BME280;12395;42.808;23.408;2023-04-20T04:07:37;94500.66;;;6.55;100.00
24280;BME280;12395;42.808;23.408;2023-04-20T04:10:02;94526.63;;;6.65;100.00
24280;BME280;12395;42.808;23.408;2023-04-20T04:12:29;94513.31;;;6.73;100.00
24280;BME280;12395;42.808;23.408;2023-04-20T04:14:55;94522.91;;;6.87;100.00
24280;BME280;12395;42.808;23.408;2023-04-20T04:17:20;94500.59;;;6.83;100.00
24280;BME280;12395;42.808;23.408;2023-04-20T04:19:46;94525.84;;;7.05;100.00
24280;BME280;12395;42.808;23.408;2023-04-20T04:22:11;94534.00;;;7.17;100.00
24280;BME280;12395;42.808;23.408;2023-04-20T04:24:36;94517.00;;;7.19;100.00
24280;BME280;12395;42.808;23.408;2023-04-20T04:27:03;94513.38;;;7.20;100.00
24280;BME280;12395;42.808;23.408;2023-04-20T04:29:29;94515.59;;;7.23;100.00
24280;BME280;12395;42.808;23.408;2023-04-20T04:31:55;94514.84;;;7.36;100.00
24280;BME280;12395;42.808;23.408;2023-04-20T04:34:20;94519.72;;;7.39;100.00
24280;BME280;12395;42.808;23.408;2023-04-20T04:36:48;94507.56;;;7.44;100.00
24280;BME280;12395;42.808;23.408;2023-04-20T04:39:13;94518.16;;;7.57;100.00
24280;BME280;12395;42.808;23.408;2023-04-20T04:41:39;94520.00;;;7.63;100.00
24280;BME280;12395;42.808;23.408;2023-04-20T04:44:04;94527.94;;;7.76;100.00
24280;BME280;12395;42.808;23.408;2023-04-20T04:46:30;94515.78;;;7.75;100.00
24280;BME280;12395;42.808;23.408;2023-04-20T04:48:56;94523.28;;;7.78;100.00
24280;BME280;12395;42.808;23.408;2023-04-20T04:51:25;94532.84;;;7.86;100.00
24280;BME280;12395;42.808;23.408;2023-04-20T04:53:50;94516.41;;;7.77;100.00
24280;BME280;12395;42.808;23.408;2023-04-20T04:56:15;94529.22;;;8.00;100.00
24280;BME280;12395;42.808;23.408;2023-04-20T04:58:43;94541.00;;;8.24;100.00
24280;BME280;12395;42.808;23.408;2023-04-20T05:01:09;94524.16;;;8.18;100.00
24280;BME280;12395;42.808;23.408;2023-04-20T05:03:35;94531.53;;;8.29;100.00
24280;BME280;12395;42.808;23.408;2023-04-20T05:06:00;94554.88;;;8.52;100.00
24280;BME280;12395;42.808;23.408;2023-04-20T05:08:25;94538.03;;;8.53;100.00
24280;BME280;12395;42.808;23.408;2023-04-20T05:10:51;94556.47;;;8.66;100.00
24280;BME280;12395;42.808;23.408;2023-04-20T05:13:16;94545.72;;;8.68;100.00
24280;BME280;12395;42.808;23.408;2023-04-20T05:15:42;94558.13;;;8.80;100.00
24280;BME280;12395;42.808;23.408;2023-04-20T05:18:08;94547.34;;;8.82;100.00
24280;BME280;12395;42.808;23.408;2023-04-20T05:20:33;94538.41;;;8.89;100.00
24280;BME280;12395;42.808;23.408;2023-04-20T05:22:58;94563.16;;;9.01;100.00
24280;BME280;12395;42.808;23.408;2023-04-20T05:25:24;94555.00;;;9.09;100.00
24280;BME280;12395;42.808;23.408;2023-04-20T05:27:49;94557.88;;;9.08;100.00
24280;BME280;12395;42.808;23.408;2023-04-20T05:30:15;94548.91;;;9.09;100.00
24280;BME280;12395;42.808;23.408;2023-04-20T05:32:41;94555.38;;;9.26;100.00
24280;BME280;12395;42.808;23.408;2023-04-20T05:35:06;94556.41;;;9.25;100.00
24280;BME280;12395;42.808;23.408;2023-04-20T05:37:32;94567.56;;;9.33;100.00
24280;BME280;12395;42.808;23.408;2023-04-20T05:39:57;94559.00;;;9.38;100.00
24280;BME280;12395;42.808;23.408;2023-04-20T05:42:23;94562.25;;;9.47;100.00
24280;BME280;12395;42.808;23.408;2023-04-20T05:44:48;94558.97;;;9.51;100.00
24280;BME280;12395;42.808;23.408;2023-04-20T05:47:13;94568.13;;;9.49;100.00
24280;BME280;12395;42.808;23.408;2023-04-20T05:49:39;94566.88;;;9.58;100.00
24280;BME280;12395;42.808;23.408;2023-04-20T05:52:04;94566.03;;;9.64;100.00
24280;BME280;12395;42.808;23.408;2023-04-20T05:54:30;94572.88;;;9.78;100.00
24280;BME280;12395;42.808;23.408;2023-04-20T05:56:56;94576.34;;;9.78;100.00
24280;BME280;12395;42.808;23.408;2023-04-20T05:59:25;94578.00;;;9.79;100.00
24280;BME280;12395;42.808;23.408;2023-04-20T06:01:51;94579.78;;;9.85;100.00
24280;BME280;12395;42.808;23.408;2023-04-20T06:04:16;94570.19;;;9.91;100.00
24280;BME280;12395;42.808;23.408;2023-04-20T06:06:43;94559.63;;;9.84;100.00
24280;BME280;12395;42.808;23.408;2023-04-20T06:09:08;94556.81;;;9.79;100.00
24280;BME280;12395;42.808;23.408;2023-04-20T06:11:34;94568.13;;;9.93;100.00
24280;BME280;12395;42.808;23.408;2023-04-20T06:13:59;94574.81;;;10.02;100.00
24280;BME280;12395;42.808;23.408;2023-04-20T06:16:25;94570.94;;;10.04;100.00
24280;BME280;12395;42.808;23.408;2023-04-20T06:18:50;94555.69;;;10.00;100.00
24280;BME280;12395;42.808;23.408;2023-04-20T06:21:16;94561.97;;;10.12;100.00
24280;BME280;12395;42.808;23.408;2023-04-20T06:23:42;94578.06;;;10.11;100.00
24280;BME280;12395;42.808;23.408;2023-04-20T06:26:08;94563.38;;;10.08;100.00
24280;BME280;12395;42.808;23.408;2023-04-20T06:28:35;94579.59;;;10.25;100.00
24280;BME280;12395;42.808;23.408;2023-04-20T06:31:01;94580.84;;;10.22;100.00
24280;BME280;12395;42.808;23.408;2023-04-20T06:33:27;94575.31;;;10.30;100.00
24280;BME280;12395;42.808;23.408;2023-04-20T06:35:52;94545.44;;;10.10;100.00
24280;BME280;12395;42.808;23.408;2023-04-20T06:38:19;94574.19;;;10.13;100.00
24280;BME280;12395;42.808;23.408;2023-04-20T06:40:44;94570.41;;;10.27;100.00
24280;BME280;12395;42.808;23.408;2023-04-20T06:43:10;94562.56;;;10.45;100.00
24280;BME280;12395;42.808;23.408;2023-04-20T06:45:36;94574.09;;;10.82;100.00
24280;BME280;12395;42.808;23.408;2023-04-20T06:48:01;94586.84;;;10.92;100.00
24280;BME280;12395;42.808;23.408;2023-04-20T06:50:27;94588.28;;;10.94;100.00
24280;BME280;12395;42.808;23.408;2023-04-20T06:52:52;94592.41;;;11.08;100.00
24280;BME280;12395;42.808;23.408;2023-04-20T06:55:18;94596.06;;;11.14;100.00
24280;BME280;12395;42.808;23.408;2023-04-20T06:57:43;94587.50;;;11.12;100.00
24280;BME280;12395;42.808;23.408;2023-04-20T07:00:10;94587.94;;;11.09;100.00
24280;BME280;12395;42.808;23.408;2023-04-20T07:02:43;94583.44;;;11.09;100.00
24280;BME280;12395;42.808;23.408;2023-04-20T07:05:09;94593.88;;;11.29;100.00
24280;BME280;12395;42.808;23.408;2023-04-20T07:07:35;94586.72;;;11.29;99.82
24280;BME280;12395;42.808;23.408;2023-04-20T07:10:01;94593.44;;;11.50;100.00
24280;BME280;12395;42.808;23.408;2023-04-20T07:12:26;94580.13;;;11.56;98.05
24280;BME280;12395;42.808;23.408;2023-04-20T07:14:52;94592.31;;;11.82;98.55
24280;BME280;12395;42.808;23.408;2023-04-20T07:17:18;94588.38;;;11.85;96.70
24280;BME280;12395;42.808;23.408;2023-04-20T07:19:43;94597.38;;;11.84;97.09
24280;BME280;12395;42.808;23.408;2023-04-20T07:22:09;94591.34;;;11.95;96.57
24280;BME280;12395;42.808;23.408;2023-04-20T07:24:34;94597.00;;;11.98;96.68
24280;BME280;12395;42.808;23.408;2023-04-20T07:26:59;94607.78;;;12.03;94.59
24280;BME280;12395;42.808;23.408;2023-04-20T07:29:25;94600.50;;;12.28;95.81
24280;BME280;12395;42.808;23.408;2023-04-20T07:31:50;94594.28;;;12.34;95.88
24280;BME280;12395;42.808;23.408;2023-04-20T07:34:16;94603.31;;;12.45;91.32
24280;BME280;12395;42.808;23.408;2023-04-20T07:36:41;94598.56;;;12.35;91.25
24280;BME280;12395;42.808;23.408;2023-04-20T07:39:07;94604.53;;;12.61;92.71
24280;BME280;12395;42.808;23.408;2023-04-20T07:41:32;94598.69;;;12.82;92.63
24280;BME280;12395;42.808;23.408;2023-04-20T07:43:57;94599.16;;;12.90;90.96
24280;BME280;12395;42.808;23.408;2023-04-20T07:46:23;94595.25;;;12.93;90.28
24280;BME280;12395;42.808;23.408;2023-04-20T07:48:48;94607.38;;;13.00;88.52
24280;BME280;12395;42.808;23.408;2023-04-20T07:51:14;94591.53;;;12.94;91.45
24280;BME280;12395;42.808;23.408;2023-04-20T07:53:40;94607.88;;;13.09;89.83
24280;BME280;12395;42.808;23.408;2023-04-20T07:56:06;94590.50;;;12.95;90.06
24280;BME280;12395;42.808;23.408;2023-04-20T07:58:31;94599.91;;;13.09;89.07
24280;BME280;12395;42.808;23.408;2023-04-20T08:00:57;94600.16;;;13.31;86.60
24280;BME280;12395;42.808;23.408;2023-04-20T08:03:22;94598.66;;;13.23;86.22
24280;BME280;12395;42.808;23.408;2023-04-20T08:05:47;94599.91;;;13.09;87.68
24280;BME280;12395;42.808;23.408;2023-04-20T08:08:13;94600.69;;;12.98;88.10
24280;BME280;12395;42.808;23.408;2023-04-20T08:10:38;94596.25;;;12.80;87.77
24280;BME280;12395;42.808;23.408;2023-04-20T08:13:03;94584.38;;;12.53;88.57
24280;BME280;12395;42.808;23.408;2023-04-20T08:15:29;94592.00;;;12.38;88.00
24280;BME280;12395;42.808;23.408;2023-04-20T08:17:55;94596.31;;;12.21;87.80
24280;BME280;12395;42.808;23.408;2023-04-20T08:20:21;94595.66;;;12.07;89.51
24280;BME280;12395;42.808;23.408;2023-04-20T08:22:46;94586.59;;;11.97;89.33
24280;BME280;12395;42.808;23.408;2023-04-20T08:25:11;94605.44;;;11.95;90.06
24280;BME280;12395;42.808;23.408;2023-04-20T08:27:37;94596.25;;;11.91;90.10
24280;BME280;12395;42.808;23.408;2023-04-20T08:30:02;94598.63;;;11.99;91.08
24280;BME280;12395;42.808;23.408;2023-04-20T08:32:28;94594.50;;;12.03;91.95
24280;BME280;12395;42.808;23.408;2023-04-20T08:34:54;94601.88;;;12.01;90.04
24280;BME280;12395;42.808;23.408;2023-04-20T08:37:20;94602.88;;;12.00;91.63
24280;BME280;12395;42.808;23.408;2023-04-20T08:39:45;94615.53;;;11.87;87.74
24280;BME280;12395;42.808;23.408;2023-04-20T08:42:11;94592.25;;;11.64;89.17
24280;BME280;12395;42.808;23.408;2023-04-20T08:44:36;94597.81;;;11.99;92.36
24280;BME280;12395;42.808;23.408;2023-04-20T08:47:02;94585.94;;;12.01;89.92
24280;BME280;12395;42.808;23.408;2023-04-20T08:49:28;94608.34;;;12.05;88.95
24280;BME280;12395;42.808;23.408;2023-04-20T08:51:54;94605.88;;;12.22;88.48
24280;BME280;12395;42.808;23.408;2023-04-20T08:54:20;94594.56;;;12.56;89.70
24280;BME280;12395;42.808;23.408;2023-04-20T08:56:46;94603.25;;;13.04;87.68
24280;BME280;12395;42.808;23.408;2023-04-20T08:59:12;94596.69;;;13.30;84.29
24280;BME280;12395;42.808;23.408;2023-04-20T09:01:43;94603.63;;;13.54;81.44
24280;BME280;12395;42.808;23.408;2023-04-20T09:04:18;94615.75;;;13.73;77.92
24280;BME280;12395;42.808;23.408;2023-04-20T09:06:53;94611.56;;;13.89;79.88
24280;BME280;12395;42.808;23.408;2023-04-20T09:09:21;94618.75;;;13.88;77.23
24280;BME280;12395;42.808;23.408;2023-04-20T09:11:47;94615.63;;;13.91;76.70
24280;BME280;12395;42.808;23.408;2023-04-20T09:14:14;94604.75;;;13.81;75.92
24280;BME280;12395;42.808;23.408;2023-04-20T09:16:57;94605.47;;;13.65;76.75
24280;BME280;12395;42.808;23.408;2023-04-20T09:19:28;94590.19;;;13.61;79.70
24280;BME280;12395;42.808;23.408;2023-04-20T09:21:55;94608.94;;;13.54;78.63
24280;BME280;12395;42.808;23.408;2023-04-20T09:24:21;94608.72;;;13.56;79.30
24280;BME280;12395;42.808;23.408;2023-04-20T09:26:47;94589.63;;;13.59;80.32
24280;BME280;12395;42.808;23.408;2023-04-20T09:29:21;94591.66;;;13.80;77.16
24280;BME280;12395;42.808;23.408;2023-04-20T09:31:48;94598.03;;;13.90;77.88
24280;BME280;12395;42.808;23.408;2023-04-20T09:34:14;94589.25;;;14.18;76.26
24280;BME280;12395;42.808;23.408;2023-04-20T09:36:44;94595.47;;;14.35;76.27
24280;BME280;12395;42.808;23.408;2023-04-20T09:39:16;94601.63;;;14.36;73.68
24280;BME280;12395;42.808;23.408;2023-04-20T09:41:42;94584.59;;;14.37;76.17
24280;BME280;12395;42.808;23.408;2023-04-20T09:44:09;94590.84;;;14.59;74.35
24280;BME280;12395;42.808;23.408;2023-04-20T09:46:37;94591.84;;;14.69;77.39
24280;BME280;12395;42.808;23.408;2023-04-20T09:49:04;94581.63;;;14.50;71.98
24280;BME280;12395;42.808;23.408;2023-04-20T09:51:31;94572.28;;;14.47;75.79
24280;BME280;12395;42.808;23.408;2023-04-20T09:53:58;94596.63;;;14.39;73.01
24280;BME280;12395;42.808;23.408;2023-04-20T09:56:26;94549.66;;;14.22;74.33
24280;BME280;12395;42.808;23.408;2023-04-20T09:58:52;94596.88;;;14.66;72.14
24280;BME280;12395;42.808;23.408;2023-04-20T10:01:19;94579.59;;;14.85;69.40
24280;BME280;12395;42.808;23.408;2023-04-20T10:03:45;94583.00;;;15.14;71.52
24280;BME280;12395;42.808;23.408;2023-04-20T10:08:51;94571.75;;;15.28;71.74
24280;BME280;12395;42.808;23.408;2023-04-20T10:11:38;94574.69;;;15.43;69.09
24280;BME280;12395;42.808;23.408;2023-04-20T10:14:18;94575.25;;;15.29;68.05
24280;BME280;12395;42.808;23.408;2023-04-20T10:16:44;94564.88;;;14.99;68.35
24280;BME280;12395;42.808;23.408;2023-04-20T10:19:11;94562.97;;;14.95;68.05
24280;BME280;12395;42.808;23.408;2023-04-20T10:21:48;94565.53;;;14.90;67.94
24280;BME280;12395;42.808;23.408;2023-04-20T10:24:14;94554.63;;;14.91;71.05
24280;BME280;12395;42.808;23.408;2023-04-20T10:26:41;94551.44;;;15.27;67.70
24280;BME280;12395;42.808;23.408;2023-04-20T10:29:07;94560.50;;;15.60;67.56
24280;BME280;12395;42.808;23.408;2023-04-20T10:31:40;94564.56;;;15.46;67.29
24280;BME280;12395;42.808;23.408;2023-04-20T10:34:06;94551.41;;;15.22;69.59
24280;BME280;12395;42.808;23.408;2023-04-20T10:36:35;94559.72;;;15.09;69.68
24280;BME280;12395;42.808;23.408;2023-04-20T10:41:56;94554.38;;;14.93;70.90
24280;BME280;12395;42.808;23.408;2023-04-20T10:44:28;94556.97;;;15.04;68.98
24280;BME280;12395;42.808;23.408;2023-04-20T10:46:54;94542.91;;;15.09;67.70
24280;BME280;12395;42.808;23.408;2023-04-20T10:49:25;94547.19;;;14.93;66.89
24280;BME280;12395;42.808;23.408;2023-04-20T10:51:52;94548.09;;;14.99;67.92
24280;BME280;12395;42.808;23.408;2023-04-20T10:54:18;94550.50;;;15.00;68.38
24280;BME280;12395;42.808;23.408;2023-04-20T10:56:51;94554.22;;;14.99;68.49
24280;BME280;12395;42.808;23.408;2023-04-20T10:59:18;94539.84;;;15.00;68.57
24280;BME280;12395;42.808;23.408;2023-04-20T11:01:44;94549.16;;;15.36;67.21
24280;BME280;12395;42.808;23.408;2023-04-20T11:04:11;94556.94;;;15.54;66.50
24280;BME280;12395;42.808;23.408;2023-04-20T11:06:41;94548.75;;;15.61;65.51
24280;BME280;12395;42.808;23.408;2023-04-20T11:09:21;94543.50;;;15.87;67.61
24280;BME280;12395;42.808;23.408;2023-04-20T11:12:20;94543.19;;;16.05;66.49
24280;BME280;12395;42.808;23.408;2023-04-20T11:14:54;94535.19;;;16.05;68.23
24280;BME280;12395;42.808;23.408;2023-04-20T11:17:30;94536.78;;;15.85;64.29
24280;BME280;12395;42.808;23.408;2023-04-20T11:20:06;94541.19;;;15.96;66.03
24280;BME280;12395;42.808;23.408;2023-04-20T11:22:36;94538.97;;;15.88;65.95
24280;BME280;12395;42.808;23.408;2023-04-20T11:25:06;94541.94;;;15.91;65.75
24280;BME280;12395;42.808;23.408;2023-04-20T11:27:32;94524.16;;;16.02;65.74
24280;BME280;12395;42.808;23.408;2023-04-20T11:29:58;94538.16;;;16.09;62.76
24280;BME280;12395;42.808;23.408;2023-04-20T11:32:25;94537.78;;;16.00;62.43
24280;BME280;12395;42.808;23.408;2023-04-20T11:34:58;94533.91;;;15.91;64.45
24280;BME280;12395;42.808;23.408;2023-04-20T11:37:24;94537.78;;;15.79;64.28
24280;BME280;12395;42.808;23.408;2023-04-20T11:40:04;94537.94;;;15.72;64.75
24280;BME280;12395;42.808;23.408;2023-04-20T11:42:34;94518.41;;;15.67;66.96
24280;BME280;12395;42.808;23.408;2023-04-20T11:45:00;94524.13;;;15.97;64.01
24280;BME280;12395;42.808;23.408;2023-04-20T11:47:26;94535.03;;;16.17;62.74
24280;BME280;12395;42.808;23.408;2023-04-20T11:49:51;94531.78;;;16.15;63.22
24280;BME280;12395;42.808;23.408;2023-04-20T11:52:17;94528.72;;;16.01;62.63
24280;BME280;12395;42.808;23.408;2023-04-20T11:54:43;94524.84;;;15.92;65.01
24280;BME280;12395;42.808;23.408;2023-04-20T11:57:08;94507.66;;;15.83;63.20
24280;BME280;12395;42.808;23.408;2023-04-20T11:59:33;94493.47;;;15.61;62.41
24280;BME280;12395;42.808;23.408;2023-04-20T12:01:59;94526.63;;;15.43;62.52
24280;BME280;12395;42.808;23.408;2023-04-20T12:04:28;94523.63;;;15.23;69.09
24280;BME280;12395;42.808;23.408;2023-04-20T12:06:54;94509.84;;;14.77;70.52
24280;BME280;12395;42.808;23.408;2023-04-20T12:09:20;94523.25;;;14.65;69.51
24280;BME280;12395;42.808;23.408;2023-04-20T12:11:45;94520.97;;;14.57;72.98
24280;BME280;12395;42.808;23.408;2023-04-20T12:14:11;94523.91;;;14.55;74.89
24280;BME280;12395;42.808;23.408;2023-04-20T12:16:36;94543.97;;;14.18;73.77
24280;BME280;12395;42.808;23.408;2023-04-20T12:19:02;94527.50;;;13.53;82.22
24280;BME280;12395;42.808;23.408;2023-04-20T12:21:27;94524.66;;;13.08;86.83
24280;BME280;12395;42.808;23.408;2023-04-20T12:23:52;94519.63;;;12.89;86.97
24280;BME280;12395;42.808;23.408;2023-04-20T12:26:18;94502.66;;;12.78;89.59
24280;BME280;12395;42.808;23.408;2023-04-20T12:28:43;94515.00;;;12.84;95.25
24280;BME280;12395;42.808;23.408;2023-04-20T12:31:12;94521.16;;;12.85;97.08
24280;BME280;12395;42.808;23.408;2023-04-20T12:33:37;94529.22;;;12.90;98.07
24280;BME280;12395;42.808;23.408;2023-04-20T12:36:03;94519.16;;;12.92;96.58
24280;BME280;12395;42.808;23.408;2023-04-20T12:38:28;94531.19;;;12.83;90.90
24280;BME280;12395;42.808;23.408;2023-04-20T12:40:53;94512.56;;;12.71;94.98
24280;BME280;12395;42.808;23.408;2023-04-20T12:43:19;94511.13;;;13.10;100.00
24280;BME280;12395;42.808;23.408;2023-04-20T12:45:45;94512.25;;;13.37;98.16
24280;BME280;12395;42.808;23.408;2023-04-20T12:48:12;94511.94;;;13.73;100.00
24280;BME280;12395;42.808;23.408;2023-04-20T12:50:37;94508.09;;;13.81;89.66
24280;BME280;12395;42.808;23.408;2023-04-20T12:53:02;94516.84;;;13.93;87.30